NVVK weather

Lenakel Airport
Lenakel, Tafea, Vanuatu

Public forecast

Using degrees Celsius for public forecast. Weather courtesy of forecast.io.

METAR (pilot weather report)

Closest report is Tanna Airport, 4.3 nm (7.9 km) NNW. Retrieved 2019/06/26 03:00 UTC (4 minutes ago):

NVVW 260300Z 09012KT 9999 BKN022 28/22 Q1014

TAF (pilot weather forecast)

Forecast is more than 12 hours old.

Closest forecast is Tanna Airport, 4.3 nm (7.9 km) NNW. Retrieved 2019/06/25 00:20 UTC (1 day ago):

TAF NVVW 252220Z 2600/2624 11010G20KT 9999 SCT020 PROB30 INTER 2609/2612 9000 -SHRA BKN018